Wild Lotus — 3FUT8 — position and weather

sailwx.info

Track history (hours):
 
Tides and Currents Weather Stations Pressure Air Temp Water Temp Dewpoint Dewpoint Depression Visibility Wind Speed Wind Dir Waves Ship Positions

Wild Lotus

Last reported at 2017-Oct-13 18:13 UTC. Time now 2017-Nov-18 08:32 UTC.
Position N 31°03' W 017°22'.
Warning: this ship's position is 35 days out of date.

Length 150 m; draft 6.2 m.

Type: Ship. MMSI: 352408000.

Date/timePositionNaut miles runAvg speedWind from/ knotsBaromVisibWave heightAir tempDewpointWater temp
2017-Oct-13 18:13N 31°03' W 017°22'2219.9
2017-Oct-13 17:07N 31°12' W 016°58'920.1
2017-Oct-13 16:40N 31°16' W 016°48'320.2
2017-Oct-13 16:30N 31°17' W 016°45'2220.3
2017-Oct-13 15:24N 31°26' W 016°21'820.5
2017-Oct-13 15:01N 31°30' W 016°13'1020.6
2017-Oct-13 14:30N 31°34' W 016°02'1020.4
2017-Oct-13 14:00N 31°38' W 015°51'1020.2
2017-Oct-13 13:30N 31°42' W 015°40'1020.1
2017-Oct-13 13:00N 31°46' W 015°29'1020.1
2017-Oct-13 12:30N 31°51' W 015°18'1020.0
2017-Oct-13 12:00N 31°55' W 015°08'1020.2
2017-Oct-13 11:30N 31°59' W 014°57'1020.0
2017-Oct-13 11:00N 32°03' W 014°46'1020.3
2017-Oct-13 10:30N 32°08' W 014°35'1020.4
2017-Oct-13 10:01N 32°12' W 014°25'10220.2
2017-Oct-13 04:56N 33°00' W 012°37'8020.3
2017-Oct-13 01:01N 33°38' W 011°14'321.0
2017-Oct-13 00:53N 33°39' W 011°10'820.0
2017-Oct-13 00:30N 33°42' W 011°02'1421.1
2017-Oct-12 23:50N 33°49' W 010°47'11120.3
2017-Oct-12 18:21N 34°41' W 008°48'720.5
2017-Oct-12 18:00N 34°44' W 008°40'1020.6
2017-Oct-12 17:30N 34°49' W 008°29'1220.3
2017-Oct-12 16:55N 34°54' W 008°16'820.2
2017-Oct-12 16:31N 34°57' W 008°06'1020.0
2017-Oct-12 16:00N 35°02' W 007°56'1020.2
2017-Oct-12 15:30N 35°07' W 007°45'1020.3
2017-Oct-12 15:00N 35°12' W 007°34'1020.5
2017-Oct-12 14:30N 35°17' W 007°24'1019.8
2017-Oct-12 14:00N 35°22' W 007°13'815.5
2017-Oct-12 13:29N 35°26' W 007°04'2 3.5
2017-Oct-12 13:00N 35°27' W 007°03'1 1.0
2017-Oct-12 12:29N 35°27' W 007°02'0 0.9
2017-Oct-12 11:58N 35°27' W 007°01'0 0.9
2017-Oct-12 11:30N 35°27' W 007°01'0 1.0
2017-Oct-12 11:00N 35°27' W 007°00'0 0.9
2017-Oct-12 10:29N 35°27' W 006°60'0 0.9
2017-Oct-12 09:59N 35°27' W 006°59'0 0.9
2017-Oct-12 09:29N 35°27' W 006°59'0 0.8
2017-Oct-12 08:57N 35°27' W 006°58'0 0.7
2017-Oct-12 08:30N 35°27' W 006°58'0 0.6
2017-Oct-12 08:00N 35°27' W 006°57'0 0.7
2017-Oct-12 07:25N 35°28' W 006°57'0 0.6
2017-Oct-12 07:00N 35°28' W 006°57'0 0.7
2017-Oct-12 06:30N 35°28' W 006°57'0 0.7
2017-Oct-12 05:51N 35°28' W 006°56'0 0.6
2017-Oct-12 05:30N 35°29' W 006°56'0 0.6
2017-Oct-12 05:00N 35°29' W 006°56'0 0.4
2017-Oct-12 04:06N 35°29' W 006°56'0 0.4
2017-Oct-12 03:59N 35°29' W 006°56'0 0.3
2017-Oct-12 03:30N 35°29' W 006°56'0 0.3
2017-Oct-12 03:00N 35°29' W 006°56'0 0.2
2017-Oct-12 02:28N 35°29' W 006°55'0 0.3
2017-Oct-12 02:00N 35°29' W 006°55'0 0.3
2017-Oct-12 00:19N 35°30' W 006°55'1 0.4
2017-Oct-11 22:48N 35°30' W 006°54'0 1.2
2017-Oct-11 22:28N 35°30' W 006°54'1 1.5
2017-Oct-11 21:57N 35°30' W 006°53'1 1.5
2017-Oct-11 21:27N 35°31' W 006°52'1 1.6
2017-Oct-11 20:58N 35°31' W 006°51'1 1.6
2017-Oct-11 20:25N 35°32' W 006°51'1 1.6
2017-Oct-11 19:57N 35°32' W 006°50'1 1.8
2017-Oct-11 19:31N 35°33' W 006°49'2 1.9
2017-Oct-11 18:40N 35°34' W 006°48'1 1.8
2017-Oct-11 18:11N 35°35' W 006°48'2 1.7
2017-Oct-11 16:55N 35°37' W 006°47'75 4.4
2017-Oct-10 23:56N 36°10' W 005°25'0 0.0
2017-Oct-10 12:53N 36°10' W 005°25'0 0.0
2017-Oct-10 12:29N 36°10' W 005°25'0 0.0
2017-Oct-10 11:56N 36°10' W 005°25'289 5.6
2017-Oct-08 08:17N 37°30' E 000°23'51215.9
2017-Oct-07 00:04N 43°35' E 008°14'320.0
2017-Oct-06 23:53N 43°38' E 008°16'1720.2
2017-Oct-06 23:04N 43°53' E 008°25'120.3
2017-Oct-06 23:00N 43°54' E 008°26'1020.1
2017-Oct-06 22:31N 44°04' E 008°30'816.5
2017-Oct-06 22:01N 44°12' E 008°33'510.3
2017-Oct-06 21:30N 44°16' E 008°28'1 1.4
2017-Oct-06 21:00N 44°16' E 008°27'0 0.0
2017-Oct-06 20:30N 44°16' E 008°27'0 0.0
2017-Oct-06 20:00N 44°16' E 008°27'0 0.0
2017-Oct-06 19:30N 44°16' E 008°27'0 0.0
2017-Oct-06 19:00N 44°16' E 008°27'0 0.0
2017-Oct-06 18:27N 44°16' E 008°27'0 0.0
2017-Oct-06 18:00N 44°16' E 008°27'0 0.0
2017-Oct-06 17:30N 44°16' E 008°27'0 0.0
2017-Oct-06 17:00N 44°16' E 008°27'0 0.0
2017-Oct-06 16:30N 44°16' E 008°27'0 0.0
2017-Oct-06 16:00N 44°16' E 008°27'0 0.0
2017-Oct-06 15:30N 44°16' E 008°27'0 0.0
2017-Oct-06 14:54N 44°16' E 008°27'0 0.0
2017-Oct-06 14:30N 44°16' E 008°27'0 0.0
2017-Oct-06 14:00N 44°16' E 008°27'0 0.0
2017-Oct-06 13:30N 44°16' E 008°27'0 0.0
2017-Oct-06 13:00N 44°16' E 008°27'0 0.0
2017-Oct-06 12:30N 44°16' E 008°27'0 0.0
2017-Oct-06 12:00N 44°16' E 008°27'0 0.0
2017-Oct-06 11:30N 44°16' E 008°27'0 0.0
2017-Oct-06 11:00N 44°16' E 008°27'0 0.0
2017-Oct-06 10:30N 44°16' E 008°27'0 0.0
2017-Oct-06 10:00N 44°16' E 008°27'0 0.0
2017-Oct-06 09:30N 44°16' E 008°27'0 0.0
2017-Oct-06 09:00N 44°16' E 008°27'0 0.0
2017-Oct-06 08:30N 44°16' E 008°27'0 0.0
2017-Oct-06 08:00N 44°16' E 008°27'0 0.0
2017-Oct-06 07:30N 44°16' E 008°27'0 0.0
2017-Oct-06 06:57N 44°16' E 008°27'0 0.0
2017-Oct-06 06:27N 44°16' E 008°27'0 0.0
2017-Oct-06 05:57N 44°16' E 008°27'0 0.0
2017-Oct-06 05:27N 44°16' E 008°27'0 0.0
2017-Oct-06 04:57N 44°16' E 008°27'0 0.0
2017-Oct-06 04:21N 44°16' E 008°27'0 0.0
2017-Oct-06 03:57N 44°16' E 008°27'0 0.0
2017-Oct-06 03:27N 44°16' E 008°27'0 0.0
2017-Oct-06 02:57N 44°16' E 008°27'0 0.0
2017-Oct-06 02:27N 44°16' E 008°27'0 0.0
2017-Oct-06 01:57N 44°16' E 008°27'0 0.0
2017-Oct-06 01:27N 44°16' E 008°27'0 0.0
2017-Oct-06 00:57N 44°16' E 008°27'0 0.0
2017-Oct-06 00:27N 44°16' E 008°27'0 0.0
2017-Oct-05 23:57N 44°16' E 008°27'0 0.0
2017-Oct-05 23:27N 44°16' E 008°27'0 0.0
2017-Oct-05 22:57N 44°16' E 008°27'0 0.0
2017-Oct-05 22:27N 44°16' E 008°27'0 0.0
2017-Oct-05 21:57N 44°16' E 008°27'0 0.0
2017-Oct-05 21:21N 44°16' E 008°27'0 0.0
2017-Oct-05 20:57N 44°16' E 008°27'0 0.0
2017-Oct-05 20:27N 44°16' E 008°27'0 0.0
2017-Oct-05 19:57N 44°16' E 008°27'0 0.0
2017-Oct-05 19:27N 44°16' E 008°27'0 0.0
2017-Oct-05 18:51N 44°16' E 008°27'0 0.0
2017-Oct-05 18:21N 44°16' E 008°27'0 0.0
2017-Oct-05 17:57N 44°16' E 008°27'0 0.0
2017-Oct-05 17:27N 44°16' E 008°27'0 0.0
2017-Oct-05 16:51N 44°16' E 008°27'1 0.7
2017-Oct-05 15:30N 44°16' E 008°28'3 5.6
2017-Oct-05 15:00N 44°16' E 008°32'510.7
2017-Oct-05 14:30N 44°11' E 008°34'814.9
2017-Oct-05 14:00N 44°04' E 008°30'816.4
2017-Oct-05 13:30N 43°56' E 008°25'1017.6
2017-Oct-05 12:55N 43°47' E 008°20'11919.2
2017-Oct-05 06:44N 42°12' E 006°42'4315.5
2017-Oct-05 03:59N 42°05' E 005°45'1512.8
2017-Oct-05 02:47N 42°04' E 005°25'715.7
2017-Oct-05 02:20N 42°03' E 005°15'718.8
2017-Oct-05 01:59N 42°02' E 005°06'1019.8
2017-Oct-05 01:28N 42°01' E 004°53'919.5
2017-Oct-05 01:00N 42°00' E 004°40'1019.3
2017-Oct-05 00:29N 41°56' E 004°28'2619.0
2017-Oct-04 23:07N 41°45' E 003°57'9219.3
2017-Oct-04 18:21N 41°07' E 002°05'719.1
2017-Oct-04 18:00N 41°05' E 001°57'1019.4
2017-Oct-04 17:30N 41°04' E 001°44'  
Track history (hours):
 
Tides and Currents Weather Stations Pressure Air Temp Water Temp Dewpoint Dewpoint Depression Visibility Wind Speed Wind Dir Waves Ship Positions

Wild Lotus

Last reported at 2017-Oct-13 18:13 UTC. Time now 2017-Nov-18 08:32 UTC.
Position N 31°03' W 017°22'.
Warning: this ship's position is 35 days out of date.

Length 150 m; draft 6.2 m.

Type: Ship. MMSI: 352408000.

Date/timePositionNaut miles runAvg speedWind from/ knotsBaromVisibWave heightAir tempDewpointWater temp
2017-Oct-13 18:13N 31°03' W 017°22'2219.9
2017-Oct-13 17:07N 31°12' W 016°58'920.1
2017-Oct-13 16:40N 31°16' W 016°48'320.2
2017-Oct-13 16:30N 31°17' W 016°45'2220.3
2017-Oct-13 15:24N 31°26' W 016°21'820.5
2017-Oct-13 15:01N 31°30' W 016°13'1020.6
2017-Oct-13 14:30N 31°34' W 016°02'1020.4
2017-Oct-13 14:00N 31°38' W 015°51'1020.2
2017-Oct-13 13:30N 31°42' W 015°40'1020.1
2017-Oct-13 13:00N 31°46' W 015°29'1020.1
2017-Oct-13 12:30N 31°51' W 015°18'1020.0
2017-Oct-13 12:00N 31°55' W 015°08'1020.2
2017-Oct-13 11:30N 31°59' W 014°57'1020.0
2017-Oct-13 11:00N 32°03' W 014°46'1020.3
2017-Oct-13 10:30N 32°08' W 014°35'1020.4
2017-Oct-13 10:01N 32°12' W 014°25'10220.2
2017-Oct-13 04:56N 33°00' W 012°37'8020.3
2017-Oct-13 01:01N 33°38' W 011°14'321.0
2017-Oct-13 00:53N 33°39' W 011°10'820.0
2017-Oct-13 00:30N 33°42' W 011°02'1421.1
2017-Oct-12 23:50N 33°49' W 010°47'11120.3
2017-Oct-12 18:21N 34°41' W 008°48'720.5
2017-Oct-12 18:00N 34°44' W 008°40'1020.6
2017-Oct-12 17:30N 34°49' W 008°29'1220.3
2017-Oct-12 16:55N 34°54' W 008°16'820.2
2017-Oct-12 16:31N 34°57' W 008°06'1020.0
2017-Oct-12 16:00N 35°02' W 007°56'1020.2
2017-Oct-12 15:30N 35°07' W 007°45'1020.3
2017-Oct-12 15:00N 35°12' W 007°34'1020.5
2017-Oct-12 14:30N 35°17' W 007°24'1019.8
2017-Oct-12 14:00N 35°22' W 007°13'815.5
2017-Oct-12 13:29N 35°26' W 007°04'2 3.5
2017-Oct-12 13:00N 35°27' W 007°03'1 1.0
2017-Oct-12 12:29N 35°27' W 007°02'0 0.9
2017-Oct-12 11:58N 35°27' W 007°01'0 0.9
2017-Oct-12 11:30N 35°27' W 007°01'0 1.0
2017-Oct-12 11:00N 35°27' W 007°00'0 0.9
2017-Oct-12 10:29N 35°27' W 006°60'0 0.9
2017-Oct-12 09:59N 35°27' W 006°59'0 0.9
2017-Oct-12 09:29N 35°27' W 006°59'0 0.8
2017-Oct-12 08:57N 35°27' W 006°58'0 0.7
2017-Oct-12 08:30N 35°27' W 006°58'0 0.6
2017-Oct-12 08:00N 35°27' W 006°57'0 0.7
2017-Oct-12 07:25N 35°28' W 006°57'0 0.6
2017-Oct-12 07:00N 35°28' W 006°57'0 0.7
2017-Oct-12 06:30N 35°28' W 006°57'0 0.7
2017-Oct-12 05:51N 35°28' W 006°56'0 0.6
2017-Oct-12 05:30N 35°29' W 006°56'0 0.6
2017-Oct-12 05:00N 35°29' W 006°56'0 0.4
2017-Oct-12 04:06N 35°29' W 006°56'0 0.4
2017-Oct-12 03:59N 35°29' W 006°56'0 0.3
2017-Oct-12 03:30N 35°29' W 006°56'0 0.3
2017-Oct-12 03:00N 35°29' W 006°56'0 0.2
2017-Oct-12 02:28N 35°29' W 006°55'0 0.3
2017-Oct-12 02:00N 35°29' W 006°55'0 0.3
2017-Oct-12 00:19N 35°30' W 006°55'1 0.4
2017-Oct-11 22:48N 35°30' W 006°54'0 1.2
2017-Oct-11 22:28N 35°30' W 006°54'1 1.5
2017-Oct-11 21:57N 35°30' W 006°53'1 1.5
2017-Oct-11 21:27N 35°31' W 006°52'1 1.6
2017-Oct-11 20:58N 35°31' W 006°51'1 1.6
2017-Oct-11 20:25N 35°32' W 006°51'1 1.6
2017-Oct-11 19:57N 35°32' W 006°50'1 1.8
2017-Oct-11 19:31N 35°33' W 006°49'2 1.9
2017-Oct-11 18:40N 35°34' W 006°48'1 1.8
2017-Oct-11 18:11N 35°35' W 006°48'2 1.7
2017-Oct-11 16:55N 35°37' W 006°47'75 4.4
2017-Oct-10 23:56N 36°10' W 005°25'0 0.0
2017-Oct-10 12:53N 36°10' W 005°25'0 0.0
2017-Oct-10 12:29N 36°10' W 005°25'0 0.0
2017-Oct-10 11:56N 36°10' W 005°25'289 5.6
2017-Oct-08 08:17N 37°30' E 000°23'51215.9
2017-Oct-07 00:04N 43°35' E 008°14'320.0
2017-Oct-06 23:53N 43°38' E 008°16'1720.2
2017-Oct-06 23:04N 43°53' E 008°25'120.3
2017-Oct-06 23:00N 43°54' E 008°26'1020.1
2017-Oct-06 22:31N 44°04' E 008°30'816.5
2017-Oct-06 22:01N 44°12' E 008°33'510.3
2017-Oct-06 21:30N 44°16' E 008°28'1 1.4
2017-Oct-06 21:00N 44°16' E 008°27'0 0.0
2017-Oct-06 20:30N 44°16' E 008°27'0 0.0
2017-Oct-06 20:00N 44°16' E 008°27'0 0.0
2017-Oct-06 19:30N 44°16' E 008°27'0 0.0
2017-Oct-06 19:00N 44°16' E 008°27'0 0.0
2017-Oct-06 18:27N 44°16' E 008°27'0 0.0
2017-Oct-06 18:00N 44°16' E 008°27'0 0.0
2017-Oct-06 17:30N 44°16' E 008°27'0 0.0
2017-Oct-06 17:00N 44°16' E 008°27'0 0.0
2017-Oct-06 16:30N 44°16' E 008°27'0 0.0
2017-Oct-06 16:00N 44°16' E 008°27'0 0.0
2017-Oct-06 15:30N 44°16' E 008°27'0 0.0
2017-Oct-06 14:54N 44°16' E 008°27'0 0.0
2017-Oct-06 14:30N 44°16' E 008°27'0 0.0
2017-Oct-06 14:00N 44°16' E 008°27'0 0.0
2017-Oct-06 13:30N 44°16' E 008°27'0 0.0
2017-Oct-06 13:00N 44°16' E 008°27'0 0.0
2017-Oct-06 12:30N 44°16' E 008°27'0 0.0
2017-Oct-06 12:00N 44°16' E 008°27'0 0.0
2017-Oct-06 11:30N 44°16' E 008°27'0 0.0
2017-Oct-06 11:00N 44°16' E 008°27'0 0.0
2017-Oct-06 10:30N 44°16' E 008°27'0 0.0
2017-Oct-06 10:00N 44°16' E 008°27'0 0.0
2017-Oct-06 09:30N 44°16' E 008°27'0 0.0
2017-Oct-06 09:00N 44°16' E 008°27'0 0.0
2017-Oct-06 08:30N 44°16' E 008°27'0 0.0
2017-Oct-06 08:00N 44°16' E 008°27'0 0.0
2017-Oct-06 07:30N 44°16' E 008°27'0 0.0
2017-Oct-06 06:57N 44°16' E 008°27'0 0.0
2017-Oct-06 06:27N 44°16' E 008°27'0 0.0
2017-Oct-06 05:57N 44°16' E 008°27'0 0.0
2017-Oct-06 05:27N 44°16' E 008°27'0 0.0
2017-Oct-06 04:57N 44°16' E 008°27'0 0.0
2017-Oct-06 04:21N 44°16' E 008°27'0 0.0
2017-Oct-06 03:57N 44°16' E 008°27'0 0.0
2017-Oct-06 03:27N 44°16' E 008°27'0 0.0
2017-Oct-06 02:57N 44°16' E 008°27'0 0.0
2017-Oct-06 02:27N 44°16' E 008°27'0 0.0
2017-Oct-06 01:57N 44°16' E 008°27'0 0.0
2017-Oct-06 01:27N 44°16' E 008°27'0 0.0
2017-Oct-06 00:57N 44°16' E 008°27'0 0.0
2017-Oct-06 00:27N 44°16' E 008°27'0 0.0
2017-Oct-05 23:57N 44°16' E 008°27'0 0.0
2017-Oct-05 23:27N 44°16' E 008°27'0 0.0
2017-Oct-05 22:57N 44°16' E 008°27'0 0.0
2017-Oct-05 22:27N 44°16' E 008°27'0 0.0
2017-Oct-05 21:57N 44°16' E 008°27'0 0.0
2017-Oct-05 21:21N 44°16' E 008°27'0 0.0
2017-Oct-05 20:57N 44°16' E 008°27'0 0.0
2017-Oct-05 20:27N 44°16' E 008°27'0 0.0
2017-Oct-05 19:57N 44°16' E 008°27'0 0.0
2017-Oct-05 19:27N 44°16' E 008°27'0 0.0
2017-Oct-05 18:51N 44°16' E 008°27'0 0.0
2017-Oct-05 18:21N 44°16' E 008°27'0 0.0
2017-Oct-05 17:57N 44°16' E 008°27'0 0.0
2017-Oct-05 17:27N 44°16' E 008°27'0 0.0
2017-Oct-05 16:51N 44°16' E 008°27'1 0.7
2017-Oct-05 15:30N 44°16' E 008°28'3 5.6
2017-Oct-05 15:00N 44°16' E 008°32'510.7
2017-Oct-05 14:30N 44°11' E 008°34'814.9
2017-Oct-05 14:00N 44°04' E 008°30'816.4
2017-Oct-05 13:30N 43°56' E 008°25'1017.6
2017-Oct-05 12:55N 43°47' E 008°20'11919.2
2017-Oct-05 06:44N 42°12' E 006°42'4315.5
2017-Oct-05 03:59N 42°05' E 005°45'1512.8
2017-Oct-05 02:47N 42°04' E 005°25'715.7
2017-Oct-05 02:20N 42°03' E 005°15'718.8
2017-Oct-05 01:59N 42°02' E 005°06'1019.8
2017-Oct-05 01:28N 42°01' E 004°53'919.5
2017-Oct-05 01:00N 42°00' E 004°40'1019.3
2017-Oct-05 00:29N 41°56' E 004°28'2619.0
2017-Oct-04 23:07N 41°45' E 003°57'9219.3
2017-Oct-04 18:21N 41°07' E 002°05'719.1
2017-Oct-04 18:00N 41°05' E 001°57'1019.4
2017-Oct-04 17:30N 41°04' E 001°44'  

Dump ship's entire track history